createdAt,value
2022-12-11T00:18:53.498Z,43.5
2022-12-11T00:38:53.468Z,43.5
2022-12-11T00:58:53.478Z,43.5
2022-12-11T01:18:53.447Z,43.6
2022-12-11T01:38:53.418Z,43.6
2022-12-11T01:58:53.384Z,43.6
2022-12-11T02:38:53.368Z,43.6
2022-12-11T02:58:53.325Z,43.6
2022-12-11T03:18:53.302Z,43.6
2022-12-11T03:38:53.254Z,43.6
2022-12-11T03:58:53.260Z,43.6
2022-12-11T04:18:53.233Z,43.7
2022-12-11T04:38:53.207Z,43.7
2022-12-11T04:58:53.156Z,43.7
2022-12-11T05:18:53.156Z,43.7
2022-12-11T05:38:53.235Z,43.8
2022-12-11T05:58:53.097Z,43.7
2022-12-11T06:18:53.135Z,43.8
2022-12-11T06:38:53.045Z,43.7
2022-12-11T06:58:53.069Z,43.6
2022-12-11T07:18:53.093Z,43.5
2022-12-11T07:38:53.087Z,43.4
2022-12-11T07:58:52.979Z,43.3
2022-12-11T08:18:52.960Z,43.3
2022-12-11T08:38:52.915Z,43.2
2022-12-11T08:58:52.877Z,43.2
2022-12-11T09:18:52.926Z,43.2
2022-12-11T09:38:52.873Z,43.2
2022-12-11T09:58:52.806Z,43.2
2022-12-11T10:18:52.777Z,43.2
2022-12-11T10:38:52.838Z,43.2
2022-12-11T10:58:52.726Z,43.2
2022-12-11T11:18:52.831Z,43.2
2022-12-11T11:38:52.721Z,43.2
2022-12-11T11:58:52.698Z,43.2
2022-12-11T12:18:52.664Z,43.3
2022-12-11T12:38:52.606Z,43.3
2022-12-11T12:58:52.686Z,43.4
2022-12-11T13:18:52.580Z,43.3
2022-12-11T13:38:52.543Z,43.3
2022-12-11T13:58:52.518Z,43.4
2022-12-11T14:18:52.514Z,43.2
2022-12-11T14:38:52.475Z,43.0
2022-12-11T14:58:52.465Z,42.6
2022-12-11T15:18:52.440Z,42.0
2022-12-11T15:38:52.390Z,42.1
2022-12-11T15:58:52.390Z,42.2
2022-12-11T16:18:52.447Z,42.1
2022-12-11T16:38:52.373Z,42.2
2022-12-11T16:58:52.339Z,42.3
2022-12-11T17:18:52.386Z,42.4
2022-12-11T17:38:52.289Z,42.6
2022-12-11T17:58:52.257Z,42.6
2022-12-11T18:18:52.221Z,42.5
2022-12-11T18:38:52.181Z,42.6
2022-12-11T18:58:52.148Z,42.6
2022-12-11T19:18:52.151Z,42.7
2022-12-11T19:38:52.192Z,41.4
2022-12-11T19:58:52.180Z,40.9
2022-12-11T20:18:52.062Z,41.3
2022-12-11T20:38:52.122Z,41.3
2022-12-11T20:58:51.991Z,41.3
2022-12-11T21:18:51.986Z,41.3
2022-12-11T21:38:51.980Z,41.3
2022-12-11T21:58:51.922Z,41.4
2022-12-11T22:18:51.916Z,41.5
2022-12-11T22:38:51.865Z,41.6
2022-12-11T22:58:51.905Z,41.8
2022-12-11T23:18:51.872Z,42.0
2022-12-11T23:38:51.821Z,42.0
2022-12-11T23:58:51.807Z,42.1
